createdAt,value
2022-08-17T06:39:40.061Z,20.20
2022-08-17T06:43:04.879Z,20.20
2022-08-17T06:45:13.087Z,20.20
2022-08-17T06:54:38.409Z,20.40
2022-08-17T06:57:14.579Z,20.40
2022-08-17T06:59:54.972Z,20.40
2022-08-17T07:02:51.538Z,20.40
2022-08-17T07:05:23.395Z,20.40
2022-08-17T07:13:29.398Z,20.60
2022-08-17T07:16:08.672Z,20.60
2022-08-17T07:18:37.412Z,20.60
2022-08-17T07:21:22.878Z,20.60
2022-08-17T07:24:04.434Z,20.60
2022-08-17T07:47:21.612Z,20.20
2022-08-17T07:49:49.609Z,20.30
2022-08-17T07:52:51.496Z,20.30
2022-08-17T07:55:31.362Z,20.30
2022-08-17T07:58:00.569Z,20.40
2022-08-17T08:00:32.778Z,20.30
2022-08-17T08:03:16.028Z,20.40
2022-08-17T08:05:53.263Z,20.40
2022-08-17T08:08:29.146Z,20.40
2022-08-17T08:11:04.092Z,20.50
2022-08-17T08:13:33.298Z,20.50
2022-08-17T08:16:20.937Z,20.50
2022-08-17T08:18:54.664Z,20.50
2022-08-17T08:21:36.437Z,20.40
2022-08-17T08:24:26.390Z,20.40
2022-08-17T08:27:07.921Z,20.50
2022-08-17T08:29:45.942Z,20.40
2022-08-17T08:32:20.505Z,20.50
2022-08-17T08:35:02.006Z,20.50
2022-08-17T08:37:42.924Z,20.50
2022-08-17T08:40:24.098Z,20.40
2022-08-17T08:43:00.326Z,20.50
2022-08-17T08:45:39.545Z,20.50
2022-08-17T08:48:52.910Z,20.50
2022-08-17T08:51:19.798Z,20.50
2022-08-17T08:53:56.144Z,20.50
2022-08-17T08:56:32.227Z,20.50
2022-08-17T08:59:08.688Z,20.60
2022-08-17T09:01:46.943Z,20.50
2022-08-17T09:05:02.662Z,20.60
2022-08-17T09:07:36.514Z,20.60
2022-08-17T09:10:19.573Z,20.70
2022-08-17T09:12:54.338Z,20.70
2022-08-17T09:15:27.666Z,20.60
2022-08-17T09:18:30.397Z,20.60
2022-08-17T09:20:54.446Z,20.60
2022-08-17T09:23:33.551Z,20.70
2022-08-17T09:26:09.870Z,20.70
2022-08-17T09:28:40.158Z,20.70
2022-08-17T09:31:10.839Z,20.70
2022-08-17T09:33:45.600Z,20.70
2022-08-17T09:36:18.844Z,20.80
2022-08-17T09:38:58.385Z,20.80
2022-08-17T09:41:36.855Z,20.80
2022-08-17T09:44:23.151Z,20.80
2022-08-17T09:46:55.382Z,20.90
2022-08-17T09:49:31.577Z,20.90
2022-08-17T09:52:06.717Z,20.90
2022-08-17T09:54:40.214Z,21.00
2022-08-17T09:57:31.849Z,21.00
2022-08-17T10:00:20.149Z,21.10
2022-08-17T10:03:09.854Z,21.10
2022-08-17T10:05:46.465Z,21.20
2022-08-17T10:08:27.847Z,21.20
2022-08-17T10:11:12.732Z,21.20
2022-08-17T10:13:52.880Z,21.30
2022-08-17T10:16:28.572Z,21.30
2022-08-17T10:19:13.788Z,21.30
2022-08-17T10:22:32.538Z,21.30
2022-08-17T10:25:22.778Z,21.30
2022-08-17T10:27:57.685Z,21.30
2022-08-17T10:30:30.422Z,21.30
2022-08-17T10:33:02.072Z,21.40
2022-08-17T10:35:40.073Z,21.40
2022-08-17T10:38:28.797Z,21.40
2022-08-17T10:41:03.913Z,21.50
2022-08-17T10:44:37.312Z,21.50
2022-08-17T10:47:02.335Z,21.50
2022-08-17T10:49:34.013Z,21.50
2022-08-17T10:52:05.751Z,21.50
2022-08-17T10:54:46.905Z,21.50
2022-08-17T10:57:41.553Z,21.50
2022-08-17T11:00:29.312Z,21.50
2022-08-17T11:02:58.364Z,21.60
2022-08-17T11:05:44.436Z,21.60
2022-08-17T11:08:39.551Z,21.60
2022-08-17T11:11:34.645Z,21.60
2022-08-17T11:14:17.041Z,21.60
2022-08-17T11:17:01.971Z,21.60
2022-08-17T11:20:05.642Z,21.60
2022-08-17T11:23:16.109Z,21.60
2022-08-17T11:25:49.501Z,21.60
2022-08-17T11:28:20.325Z,21.60
2022-08-17T11:30:51.728Z,21.60
2022-08-17T11:33:55.756Z,21.60
2022-08-17T11:36:47.093Z,21.60
2022-08-17T11:39:54.894Z,21.60
2022-08-17T11:42:38.587Z,21.70
2022-08-17T11:45:34.054Z,21.70
2022-08-17T11:48:28.401Z,21.70
2022-08-17T11:51:24.015Z,21.70
2022-08-17T11:57:00.425Z,21.90
2022-08-17T11:59:58.735Z,22.00
2022-08-17T12:02:38.884Z,22.10
2022-08-17T12:05:35.318Z,22.20
2022-08-17T12:08:17.773Z,22.30
2022-08-17T12:11:00.247Z,22.40
2022-08-17T12:13:38.431Z,22.40
2022-08-17T12:16:23.656Z,22.50
2022-08-17T12:18:54.332Z,22.50
2022-08-17T12:21:30.961Z,22.50
2022-08-17T12:24:10.228Z,22.50
2022-08-17T12:26:38.547Z,22.50
2022-08-17T12:29:18.469Z,22.60
2022-08-17T12:32:06.878Z,22.60
2022-08-17T12:34:39.360Z,22.60
2022-08-17T12:37:18.685Z,22.50
2022-08-17T12:39:56.037Z,22.50
2022-08-17T12:42:29.273Z,22.50
2022-08-17T12:44:57.889Z,22.50
2022-08-17T12:47:26.497Z,22.60
2022-08-17T12:50:29.891Z,22.60
2022-08-17T12:53:01.669Z,22.70
2022-08-17T12:55:39.027Z,22.70
2022-08-17T12:58:14.353Z,22.80
2022-08-17T13:00:49.746Z,22.80
2022-08-17T13:03:20.168Z,22.80
2022-08-17T13:05:58.634Z,22.90
2022-08-17T13:08:31.934Z,22.90
2022-08-17T13:11:04.059Z,22.90
2022-08-17T13:13:34.900Z,22.90
2022-08-17T13:16:05.731Z,23.00
2022-08-17T13:18:45.018Z,23.10
2022-08-17T13:21:22.128Z,23.30
2022-08-17T13:23:58.991Z,23.30
2022-08-17T13:26:32.600Z,23.40
2022-08-17T13:29:01.293Z,23.40
2022-08-17T13:31:52.413Z,23.40
2022-08-17T13:34:48.977Z,23.50
2022-08-17T13:37:30.295Z,23.50
2022-08-17T13:40:02.325Z,23.50
2022-08-17T13:42:34.992Z,23.50
2022-08-17T13:45:53.973Z,23.50
2022-08-17T13:48:28.224Z,23.50
2022-08-17T13:51:15.085Z,23.60
2022-08-17T13:53:57.739Z,23.70
2022-08-17T13:56:36.956Z,23.90
2022-08-17T13:59:12.473Z,24.00
2022-08-17T14:01:43.061Z,24.20
2022-08-17T14:04:14.852Z,24.50
2022-08-17T14:06:54.219Z,24.80
2022-08-17T14:09:25.530Z,24.80
2022-08-17T14:11:55.177Z,24.90
2022-08-17T14:14:25.483Z,24.90
2022-08-17T14:16:54.360Z,24.90
2022-08-17T14:19:22.899Z,25.00
2022-08-17T14:21:52.167Z,24.90
2022-08-17T14:24:27.224Z,24.80
2022-08-17T14:26:55.886Z,24.80
2022-08-17T14:29:27.802Z,24.60
2022-08-17T14:31:57.388Z,24.60
2022-08-17T14:34:27.146Z,24.50
2022-08-17T14:36:56.491Z,24.50
2022-08-17T14:39:24.571Z,24.40
2022-08-17T14:41:53.017Z,24.40
2022-08-17T14:44:21.027Z,24.50
2022-08-17T14:46:50.539Z,24.40
2022-08-17T14:49:29.022Z,24.50
2022-08-17T14:51:57.113Z,24.60
2022-08-17T14:54:32.903Z,24.80
2022-08-17T14:57:26.232Z,25.00
2022-08-17T14:59:54.832Z,25.10
2022-08-17T15:02:30.091Z,25.20
2022-08-17T15:05:03.451Z,25.20
2022-08-17T15:07:31.844Z,25.20
2022-08-17T15:10:01.597Z,25.20
2022-08-17T15:12:33.684Z,25.10
2022-08-17T15:15:04.370Z,25.10
2022-08-17T15:17:43.894Z,25.00
2022-08-17T15:20:15.751Z,24.90
2022-08-17T15:22:45.393Z,24.90
2022-08-17T15:25:14.308Z,24.80
2022-08-17T15:27:42.523Z,24.90
2022-08-17T15:30:11.875Z,24.90
2022-08-17T15:32:50.715Z,25.00
2022-08-17T15:35:27.986Z,25.00
2022-08-17T15:37:58.280Z,25.20
2022-08-17T15:40:26.725Z,25.30
2022-08-17T15:42:54.893Z,25.40
2022-08-17T15:45:28.276Z,25.40
2022-08-17T15:47:57.829Z,25.40
2022-08-17T15:50:26.517Z,25.40
2022-08-17T15:52:59.246Z,25.20
2022-08-17T15:55:28.968Z,25.10
2022-08-17T15:57:57.281Z,25.20
2022-08-17T16:00:28.517Z,25.20
2022-08-17T16:03:45.129Z,25.20
2022-08-17T16:05:50.209Z,25.30
2022-08-17T16:08:21.345Z,25.30
2022-08-17T16:10:50.042Z,25.20
2022-08-17T16:13:19.096Z,25.20
2022-08-17T16:15:57.169Z,25.10
2022-08-17T16:18:31.077Z,25.00
2022-08-17T16:21:21.560Z,25.00
2022-08-17T16:23:51.530Z,24.90
2022-08-17T16:26:19.799Z,24.80
2022-08-17T16:28:47.984Z,24.80
2022-08-17T16:31:16.605Z,24.80
2022-08-17T16:34:15.599Z,24.60
2022-08-17T16:36:38.603Z,24.60
2022-08-17T16:39:09.555Z,24.40
2022-08-17T16:41:46.704Z,24.30
2022-08-17T16:44:17.054Z,24.20
2022-08-17T16:46:46.243Z,24.10
2022-08-17T16:49:36.200Z,24.10
2022-08-17T16:52:06.962Z,24.00
2022-08-17T16:54:35.643Z,23.90
2022-08-17T16:57:05.089Z,23.90
2022-08-17T16:59:40.720Z,23.90
2022-08-17T17:02:14.778Z,23.90
2022-08-17T17:04:50.759Z,23.80
2022-08-17T17:07:34.852Z,23.90
2022-08-17T17:10:07.933Z,23.80
2022-08-17T17:13:01.547Z,23.80
2022-08-17T17:15:34.525Z,23.80
2022-08-17T17:18:07.148Z,23.70
2022-08-17T17:20:45.871Z,23.70
2022-08-17T17:23:29.198Z,23.60
2022-08-17T17:26:04.047Z,23.60
2022-08-17T17:28:43.513Z,23.60
2022-08-17T17:31:16.846Z,23.50
2022-08-17T17:33:48.517Z,23.60
2022-08-17T17:36:26.620Z,23.60
2022-08-17T17:39:00.045Z,23.60
2022-08-17T17:41:33.522Z,23.60
2022-08-17T17:44:06.076Z,23.60
2022-08-17T17:46:39.361Z,23.40
2022-08-17T17:49:10.190Z,23.40
2022-08-17T17:52:06.662Z,23.40
2022-08-17T17:54:45.738Z,23.30
2022-08-17T17:57:24.655Z,23.30
2022-08-17T17:59:59.518Z,23.30
2022-08-17T18:02:52.603Z,23.20
2022-08-17T18:05:40.379Z,23.20
2022-08-17T18:08:32.273Z,23.10
2022-08-17T18:11:09.320Z,23.10
2022-08-17T18:13:52.083Z,23.00
2022-08-17T18:16:20.278Z,23.00
2022-08-17T18:18:50.133Z,22.90
2022-08-17T18:21:21.341Z,22.90
2022-08-17T18:23:55.610Z,22.90
2022-08-17T18:26:44.638Z,22.80
2022-08-17T18:29:39.113Z,22.80
2022-08-17T18:32:18.250Z,22.70
2022-08-17T18:34:48.962Z,22.70
2022-08-17T18:37:35.320Z,22.60
2022-08-17T18:40:27.612Z,22.70
2022-08-17T18:43:05.435Z,22.60
2022-08-17T18:45:38.265Z,22.50
2022-08-17T18:48:17.737Z,22.40
2022-08-17T18:50:45.989Z,22.40
2022-08-17T18:53:33.288Z,22.40
2022-08-17T18:56:26.844Z,22.30
2022-08-17T18:59:18.211Z,22.30
2022-08-17T19:02:10.059Z,22.20
2022-08-17T19:04:44.170Z,22.10
2022-08-17T19:07:26.648Z,22.10
2022-08-17T19:09:59.408Z,22.10
2022-08-17T19:12:33.916Z,22.10
2022-08-17T19:15:02.215Z,22.20
2022-08-17T19:17:37.754Z,22.10
2022-08-17T19:20:14.940Z,22.10
2022-08-17T19:22:52.902Z,22.10
2022-08-17T19:25:27.130Z,22.10
2022-08-17T19:28:03.730Z,22.00
2022-08-17T19:30:32.764Z,22.00
2022-08-17T19:33:03.154Z,22.00
2022-08-17T19:35:43.507Z,21.90
2022-08-17T19:38:25.002Z,21.90
2022-08-17T19:41:03.757Z,21.90
2022-08-17T19:44:05.993Z,21.80
2022-08-17T19:46:58.687Z,21.80
2022-08-17T19:49:41.216Z,21.70
2022-08-17T19:52:25.663Z,21.70
2022-08-17T19:54:59.445Z,21.70
2022-08-17T19:57:43.352Z,21.60
2022-08-17T20:00:15.987Z,21.60
2022-08-17T20:02:55.473Z,21.50
2022-08-17T20:05:48.733Z,21.50
2022-08-17T20:08:26.752Z,21.40
2022-08-17T20:10:57.393Z,21.40
2022-08-17T20:13:33.672Z,21.30
2022-08-17T20:16:04.404Z,21.30
2022-08-17T20:18:37.771Z,21.30
2022-08-17T20:21:19.996Z,21.30
2022-08-17T20:23:54.331Z,21.20
2022-08-17T20:26:27.309Z,21.20
2022-08-17T20:29:29.567Z,21.10
2022-08-17T20:32:18.446Z,21.10
2022-08-17T20:34:48.300Z,21.00
2022-08-17T20:37:32.648Z,21.00
2022-08-17T20:40:21.767Z,21.00
2022-08-17T20:42:49.884Z,21.00
2022-08-17T20:45:50.343Z,21.00
2022-08-17T20:48:37.471Z,21.00
2022-08-17T20:51:34.728Z,21.00
2022-08-17T20:54:22.456Z,21.00
2022-08-17T20:56:56.242Z,20.90
2022-08-17T21:00:13.908Z,21.00
2022-08-17T21:02:44.516Z,21.00
2022-08-17T21:05:34.300Z,20.90
2022-08-17T21:08:16.999Z,20.90
2022-08-17T21:10:47.774Z,20.80
2022-08-17T21:13:33.023Z,20.80
2022-08-17T21:16:08.763Z,20.80
2022-08-17T21:18:42.431Z,20.70
2022-08-17T21:21:32.436Z,20.70
2022-08-17T21:24:19.426Z,20.70
2022-08-17T21:27:00.188Z,20.70
2022-08-17T21:29:33.809Z,20.70
2022-08-17T21:32:28.302Z,20.60
2022-08-17T21:35:23.582Z,20.60
2022-08-17T21:37:58.298Z,20.60
2022-08-17T21:40:29.022Z,20.50
2022-08-17T21:43:00.699Z,20.50
2022-08-17T21:45:35.032Z,20.50
2022-08-17T21:48:15.729Z,20.50
2022-08-17T21:50:47.486Z,20.50
2022-08-17T21:53:32.246Z,20.50
2022-08-17T21:56:01.343Z,20.40
